首页
METAR-TAF:

METAR-TAF

机场 :

Fairfield Municipal Airport

費爾菲爾德, 艾奥瓦州, 美国

纬度: 41-03N, 经度: 091-59W, 海拔: 244米

当前天气观测

该预报发布于7分钟前的07:55 UTC
风速8节,风向西
温度 -11°C
湿度 78%
气压 1020 hPa
能見度: 16.1公里
天空无云

METAR: KFFL 100755Z AUTO 28008KT 10SM CLR M11/M14 A3011 RMK A01

时间: 02:02 (08:02 UTC)


TAF: 丢失

超过4000个机场的气象观测和天气预报(METAR&TAF报告)。

可查询的气象台以黄色和红色小点在地图上表示。

将鼠标移到小点上方,可查看气象台名称。

然后点击查看天气观测和预报。

如需切换地图:点击带黑十字的绿色按钮放大地图;点击带横线的绿色按钮缩小地图;或者点击绿色箭头查看邻近地区的地图。


METAR-TAF: